sensor_id;sensor_type;location;lat;lon;timestamp;P1;durP1;ratioP1;P2;durP2;ratioP2
19173;SDS011;9719;49.322;8.536;2024-02-16T00:02:28;2.28;;;2.17;;
19173;SDS011;9719;49.322;8.536;2024-02-16T00:07:29;1.40;;;1.30;;
19173;SDS011;9719;49.322;8.536;2024-02-16T00:12:32;1.67;;;1.58;;
19173;SDS011;9719;49.322;8.536;2024-02-16T00:17:34;2.33;;;1.88;;
19173;SDS011;9719;49.322;8.536;2024-02-16T00:22:37;3.40;;;1.95;;
19173;SDS011;9719;49.322;8.536;2024-02-16T00:27:40;3.65;;;1.77;;
19173;SDS011;9719;49.322;8.536;2024-02-16T00:32:42;2.10;;;1.98;;
19173;SDS011;9719;49.322;8.536;2024-02-16T00:37:45;1.92;;;1.70;;
19173;SDS011;9719;49.322;8.536;2024-02-16T00:42:48;2.33;;;2.13;;
19173;SDS011;9719;49.322;8.536;2024-02-16T00:47:50;4.20;;;1.85;;
19173;SDS011;9719;49.322;8.536;2024-02-16T00:52:51;1.80;;;1.70;;
19173;SDS011;9719;49.322;8.536;2024-02-16T00:57:54;2.28;;;1.90;;
19173;SDS011;9719;49.322;8.536;2024-02-16T01:02:56;1.35;;;1.35;;
19173;SDS011;9719;49.322;8.536;2024-02-16T01:07:58;3.08;;;1.80;;
19173;SDS011;9719;49.322;8.536;2024-02-16T01:13:01;1.98;;;1.88;;
19173;SDS011;9719;49.322;8.536;2024-02-16T01:18:03;1.50;;;1.40;;
19173;SDS011;9719;49.322;8.536;2024-02-16T01:23:05;2.80;;;1.48;;
19173;SDS011;9719;49.322;8.536;2024-02-16T01:28:08;1.95;;;1.80;;
19173;SDS011;9719;49.322;8.536;2024-02-16T01:33:12;2.20;;;1.80;;
19173;SDS011;9719;49.322;8.536;2024-02-16T01:38:14;1.75;;;1.65;;
19173;SDS011;9719;49.322;8.536;2024-02-16T01:43:19;1.70;;;1.60;;
19173;SDS011;9719;49.322;8.536;2024-02-16T01:48:21;2.28;;;1.67;;
19173;SDS011;9719;49.322;8.536;2024-02-16T01:53:23;1.58;;;1.45;;
19173;SDS011;9719;49.322;8.536;2024-02-16T01:58:26;2.95;;;2.65;;
19173;SDS011;9719;49.322;8.536;2024-02-16T02:03:28;1.52;;;1.42;;
19173;SDS011;9719;49.322;8.536;2024-02-16T02:08:30;3.08;;;1.70;;
19173;SDS011;9719;49.322;8.536;2024-02-16T02:13:33;2.55;;;2.35;;
19173;SDS011;9719;49.322;8.536;2024-02-16T02:18:35;1.77;;;1.67;;
19173;SDS011;9719;49.322;8.536;2024-02-16T02:23:38;2.05;;;1.42;;
19173;SDS011;9719;49.322;8.536;2024-02-16T02:28:40;1.70;;;1.60;;
19173;SDS011;9719;49.322;8.536;2024-02-16T02:33:41;2.95;;;1.90;;
19173;SDS011;9719;49.322;8.536;2024-02-16T02:38:44;2.05;;;1.95;;
19173;SDS011;9719;49.322;8.536;2024-02-16T02:43:46;2.30;;;2.10;;
19173;SDS011;9719;49.322;8.536;2024-02-16T02:48:48;1.60;;;1.50;;
19173;SDS011;9719;49.322;8.536;2024-02-16T02:53:51;4.80;;;2.55;;
19173;SDS011;9719;49.322;8.536;2024-02-16T02:58:52;2.13;;;2.03;;
19173;SDS011;9719;49.322;8.536;2024-02-16T03:03:54;3.00;;;2.70;;
19173;SDS011;9719;49.322;8.536;2024-02-16T03:08:57;1.67;;;1.58;;
19173;SDS011;9719;49.322;8.536;2024-02-16T03:13:59;2.28;;;2.17;;
19173;SDS011;9719;49.322;8.536;2024-02-16T03:19:01;1.52;;;1.42;;
19173;SDS011;9719;49.322;8.536;2024-02-16T03:24:07;1.20;;;1.20;;
19173;SDS011;9719;49.322;8.536;2024-02-16T03:29:09;2.22;;;2.00;;
19173;SDS011;9719;49.322;8.536;2024-02-16T03:34:10;2.30;;;1.38;;
19173;SDS011;9719;49.322;8.536;2024-02-16T03:39:13;3.08;;;1.83;;
19173;SDS011;9719;49.322;8.536;2024-02-16T03:44:20;1.88;;;1.77;;
19173;SDS011;9719;49.322;8.536;2024-02-16T03:49:21;2.58;;;2.38;;
19173;SDS011;9719;49.322;8.536;2024-02-16T03:54:24;5.68;;;2.95;;
19173;SDS011;9719;49.322;8.536;2024-02-16T03:59:26;2.95;;;1.60;;
19173;SDS011;9719;49.322;8.536;2024-02-16T04:04:28;1.77;;;1.67;;
19173;SDS011;9719;49.322;8.536;2024-02-16T04:09:31;2.05;;;1.65;;
19173;SDS011;9719;49.322;8.536;2024-02-16T04:14:33;1.67;;;1.58;;
19173;SDS011;9719;49.322;8.536;2024-02-16T04:19:36;1.80;;;1.70;;
19173;SDS011;9719;49.322;8.536;2024-02-16T04:24:39;1.85;;;1.75;;
19173;SDS011;9719;49.322;8.536;2024-02-16T04:29:41;2.17;;;1.85;;
19173;SDS011;9719;49.322;8.536;2024-02-16T04:34:42;1.90;;;1.50;;
19173;SDS011;9719;49.322;8.536;2024-02-16T04:39:45;1.48;;;1.38;;
19173;SDS011;9719;49.322;8.536;2024-02-16T04:44:47;1.20;;;1.20;;
19173;SDS011;9719;49.322;8.536;2024-02-16T04:49:49;4.15;;;1.77;;
19173;SDS011;9719;49.322;8.536;2024-02-16T04:54:51;2.22;;;2.03;;
19173;SDS011;9719;49.322;8.536;2024-02-16T04:59:53;1.95;;;1.85;;
19173;SDS011;9719;49.322;8.536;2024-02-16T05:04:55;1.90;;;1.80;;
19173;SDS011;9719;49.322;8.536;2024-02-16T05:09:58;3.40;;;2.25;;
19173;SDS011;9719;49.322;8.536;2024-02-16T05:15:01;3.80;;;1.88;;
19173;SDS011;9719;49.322;8.536;2024-02-16T05:20:07;1.55;;;1.50;;
19173;SDS011;9719;49.322;8.536;2024-02-16T05:25:16;3.38;;;2.38;;
19173;SDS011;9719;49.322;8.536;2024-02-16T05:30:19;2.08;;;1.73;;
19173;SDS011;9719;49.322;8.536;2024-02-16T05:35:20;8.23;;;1.88;;
19173;SDS011;9719;49.322;8.536;2024-02-16T05:40:24;2.60;;;1.63;;
19173;SDS011;9719;49.322;8.536;2024-02-16T05:45:27;1.60;;;1.50;;
19173;SDS011;9719;49.322;8.536;2024-02-16T05:50:28;2.67;;;1.88;;
19173;SDS011;9719;49.322;8.536;2024-02-16T05:55:31;1.83;;;1.73;;
19173;SDS011;9719;49.322;8.536;2024-02-16T06:00:34;1.75;;;1.65;;
19173;SDS011;9719;49.322;8.536;2024-02-16T06:05:36;1.48;;;1.40;;
19173;SDS011;9719;49.322;8.536;2024-02-16T06:10:39;2.28;;;2.08;;
19173;SDS011;9719;49.322;8.536;2024-02-16T06:15:41;5.75;;;3.15;;
19173;SDS011;9719;49.322;8.536;2024-02-16T06:20:43;2.33;;;2.22;;
19173;SDS011;9719;49.322;8.536;2024-02-16T06:25:46;1.98;;;1.85;;
19173;SDS011;9719;49.322;8.536;2024-02-16T06:30:48;3.33;;;2.33;;
19173;SDS011;9719;49.322;8.536;2024-02-16T06:35:50;2.08;;;1.60;;
19173;SDS011;9719;49.322;8.536;2024-02-16T06:40:52;1.48;;;1.40;;
19173;SDS011;9719;49.322;8.536;2024-02-16T06:45:54;2.20;;;2.05;;
19173;SDS011;9719;49.322;8.536;2024-02-16T06:50:57;2.30;;;2.13;;
19173;SDS011;9719;49.322;8.536;2024-02-16T06:55:59;2.65;;;1.92;;
19173;SDS011;9719;49.322;8.536;2024-02-16T07:01:03;2.17;;;2.05;;
19173;SDS011;9719;49.322;8.536;2024-02-16T07:06:05;2.08;;;1.88;;
19173;SDS011;9719;49.322;8.536;2024-02-16T07:11:11;2.17;;;2.08;;
19173;SDS011;9719;49.322;8.536;2024-02-16T07:16:13;1.90;;;1.80;;
19173;SDS011;9719;49.322;8.536;2024-02-16T07:21:15;1.75;;;1.65;;
19173;SDS011;9719;49.322;8.536;2024-02-16T07:26:22;1.83;;;1.73;;
19173;SDS011;9719;49.322;8.536;2024-02-16T07:31:23;2.95;;;1.80;;
19173;SDS011;9719;49.322;8.536;2024-02-16T07:36:25;2.30;;;2.10;;
19173;SDS011;9719;49.322;8.536;2024-02-16T07:41:28;2.38;;;1.55;;
19173;SDS011;9719;49.322;8.536;2024-02-16T07:46:30;2.90;;;2.03;;
19173;SDS011;9719;49.322;8.536;2024-02-16T07:51:31;1.35;;;1.35;;
19173;SDS011;9719;49.322;8.536;2024-02-16T07:56:34;3.30;;;2.03;;
19173;SDS011;9719;49.322;8.536;2024-02-16T08:01:36;1.95;;;1.85;;
19173;SDS011;9719;49.322;8.536;2024-02-16T08:06:38;4.50;;;2.13;;
19173;SDS011;9719;49.322;8.536;2024-02-16T08:11:41;2.08;;;1.90;;
19173;SDS011;9719;49.322;8.536;2024-02-16T08:16:44;1.65;;;1.48;;
19173;SDS011;9719;49.322;8.536;2024-02-16T08:21:45;1.75;;;1.65;;
19173;SDS011;9719;49.322;8.536;2024-02-16T08:26:48;1.90;;;1.80;;
19173;SDS011;9719;49.322;8.536;2024-02-16T08:31:50;1.80;;;1.70;;
19173;SDS011;9719;49.322;8.536;2024-02-16T08:36:52;1.70;;;1.60;;
19173;SDS011;9719;49.322;8.536;2024-02-16T08:41:56;2.13;;;1.92;;
19173;SDS011;9719;49.322;8.536;2024-02-16T08:46:58;2.00;;;1.90;;
19173;SDS011;9719;49.322;8.536;2024-02-16T08:52:00;2.75;;;2.10;;
19173;SDS011;9719;49.322;8.536;2024-02-16T08:57:03;3.10;;;1.88;;
19173;SDS011;9719;49.322;8.536;2024-02-16T09:02:05;2.80;;;1.80;;
19173;SDS011;9719;49.322;8.536;2024-02-16T09:07:07;2.40;;;2.10;;
19173;SDS011;9719;49.322;8.536;2024-02-16T09:12:10;3.03;;;2.08;;
19173;SDS011;9719;49.322;8.536;2024-02-16T09:17:12;1.98;;;1.60;;
19173;SDS011;9719;49.322;8.536;2024-02-16T09:22:14;3.15;;;2.15;;
19173;SDS011;9719;49.322;8.536;2024-02-16T09:27:17;3.20;;;1.92;;
19173;SDS011;9719;49.322;8.536;2024-02-16T09:32:19;2.97;;;2.42;;
19173;SDS011;9719;49.322;8.536;2024-02-16T09:37:21;4.18;;;2.28;;
19173;SDS011;9719;49.322;8.536;2024-02-16T09:42:24;2.80;;;2.05;;
19173;SDS011;9719;49.322;8.536;2024-02-16T09:47:26;3.10;;;1.80;;
19173;SDS011;9719;49.322;8.536;2024-02-16T09:52:32;3.25;;;2.25;;
19173;SDS011;9719;49.322;8.536;2024-02-16T09:57:36;2.60;;;2.05;;
19173;SDS011;9719;49.322;8.536;2024-02-16T10:02:42;3.47;;;2.17;;
19173;SDS011;9719;49.322;8.536;2024-02-16T10:07:44;2.30;;;2.05;;
19173;SDS011;9719;49.322;8.536;2024-02-16T10:12:47;1.95;;;1.70;;
19173;SDS011;9719;49.322;8.536;2024-02-16T10:17:58;2.47;;;1.98;;
19173;SDS011;9719;49.322;8.536;2024-02-16T10:23:04;3.45;;;1.90;;
19173;SDS011;9719;49.322;8.536;2024-02-16T10:28:08;2.13;;;1.77;;
19173;SDS011;9719;49.322;8.536;2024-02-16T10:33:12;4.40;;;2.00;;
19173;SDS011;9719;49.322;8.536;2024-02-16T10:38:14;1.92;;;1.70;;
19173;SDS011;9719;49.322;8.536;2024-02-16T10:43:18;1.90;;;1.80;;
19173;SDS011;9719;49.322;8.536;2024-02-16T10:48:21;1.98;;;1.73;;
19173;SDS011;9719;49.322;8.536;2024-02-16T10:53:24;2.00;;;1.88;;
19173;SDS011;9719;49.322;8.536;2024-02-16T10:58:29;3.97;;;2.28;;
19173;SDS011;9719;49.322;8.536;2024-02-16T11:03:33;2.15;;;2.03;;
19173;SDS011;9719;49.322;8.536;2024-02-16T11:08:38;1.85;;;1.75;;
19173;SDS011;9719;49.322;8.536;2024-02-16T11:13:41;2.90;;;2.13;;
19173;SDS011;9719;49.322;8.536;2024-02-16T11:18:45;4.00;;;2.05;;
19173;SDS011;9719;49.322;8.536;2024-02-16T11:23:48;3.45;;;1.85;;
19173;SDS011;9719;49.322;8.536;2024-02-16T11:28:51;2.40;;;2.20;;
19173;SDS011;9719;49.322;8.536;2024-02-16T11:33:53;3.20;;;1.50;;
19173;SDS011;9719;49.322;8.536;2024-02-16T11:38:55;2.15;;;1.95;;
19173;SDS011;9719;49.322;8.536;2024-02-16T11:44:00;4.35;;;2.20;;
19173;SDS011;9719;49.322;8.536;2024-02-16T11:49:05;4.97;;;1.35;;
19173;SDS011;9719;49.322;8.536;2024-02-16T11:54:08;2.38;;;1.33;;
19173;SDS011;9719;49.322;8.536;2024-02-16T11:59:14;2.40;;;1.75;;
19173;SDS011;9719;49.322;8.536;2024-02-16T12:04:20;3.80;;;1.27;;
19173;SDS011;9719;49.322;8.536;2024-02-16T12:09:22;1.70;;;1.60;;
19173;SDS011;9719;49.322;8.536;2024-02-16T12:14:26;1.30;;;1.10;;
19173;SDS011;9719;49.322;8.536;2024-02-16T12:19:28;3.83;;;1.48;;
19173;SDS011;9719;49.322;8.536;2024-02-16T12:24:29;1.77;;;1.20;;
19173;SDS011;9719;49.322;8.536;2024-02-16T12:29:32;1.27;;;1.17;;
19173;SDS011;9719;49.322;8.536;2024-02-16T12:34:34;1.73;;;1.10;;
19173;SDS011;9719;49.322;8.536;2024-02-16T12:39:37;3.95;;;1.05;;
19173;SDS011;9719;49.322;8.536;2024-02-16T12:44:41;2.75;;;1.10;;
19173;SDS011;9719;49.322;8.536;2024-02-16T12:49:42;1.65;;;1.08;;
19173;SDS011;9719;49.322;8.536;2024-02-16T12:54:44;1.50;;;1.17;;
19173;SDS011;9719;49.322;8.536;2024-02-16T12:59:47;2.95;;;0.90;;
19173;SDS011;9719;49.322;8.536;2024-02-16T13:04:49;1.45;;;0.82;;
19173;SDS011;9719;49.322;8.536;2024-02-16T13:09:50;2.53;;;1.08;;
19173;SDS011;9719;49.322;8.536;2024-02-16T13:14:54;1.48;;;1.10;;
19173;SDS011;9719;49.322;8.536;2024-02-16T13:19:56;1.50;;;1.15;;
19173;SDS011;9719;49.322;8.536;2024-02-16T13:25:04;1.88;;;0.93;;
19173;SDS011;9719;49.322;8.536;2024-02-16T13:30:09;0.80;;;0.80;;
19173;SDS011;9719;49.322;8.536;2024-02-16T13:35:11;2.25;;;1.33;;
19173;SDS011;9719;49.322;8.536;2024-02-16T13:40:13;0.80;;;0.80;;
19173;SDS011;9719;49.322;8.536;2024-02-16T13:45:16;2.13;;;0.95;;
19173;SDS011;9719;49.322;8.536;2024-02-16T13:50:18;1.17;;;1.08;;
19173;SDS011;9719;49.322;8.536;2024-02-16T13:55:19;1.45;;;0.98;;
19173;SDS011;9719;49.322;8.536;2024-02-16T14:00:23;0.95;;;0.95;;
19173;SDS011;9719;49.322;8.536;2024-02-16T14:05:24;1.83;;;0.93;;
19173;SDS011;9719;49.322;8.536;2024-02-16T14:10:26;1.17;;;0.93;;
19173;SDS011;9719;49.322;8.536;2024-02-16T14:15:29;1.13;;;1.00;;
19173;SDS011;9719;49.322;8.536;2024-02-16T14:20:31;2.97;;;1.20;;
19173;SDS011;9719;49.322;8.536;2024-02-16T14:25:33;1.15;;;0.95;;
19173;SDS011;9719;49.322;8.536;2024-02-16T14:30:36;4.03;;;1.67;;
19173;SDS011;9719;49.322;8.536;2024-02-16T14:35:38;1.05;;;0.98;;
19173;SDS011;9719;49.322;8.536;2024-02-16T14:40:39;1.23;;;1.13;;
19173;SDS011;9719;49.322;8.536;2024-02-16T14:45:42;2.08;;;1.10;;
19173;SDS011;9719;49.322;8.536;2024-02-16T14:50:44;2.08;;;1.02;;
19173;SDS011;9719;49.322;8.536;2024-02-16T14:55:46;1.42;;;0.95;;
19173;SDS011;9719;49.322;8.536;2024-02-16T15:00:49;0.80;;;0.80;;
19173;SDS011;9719;49.322;8.536;2024-02-16T15:05:50;2.75;;;0.90;;
19173;SDS011;9719;49.322;8.536;2024-02-16T15:10:52;1.17;;;1.10;;
19173;SDS011;9719;49.322;8.536;2024-02-16T15:15:55;2.75;;;1.00;;
19173;SDS011;9719;49.322;8.536;2024-02-16T15:20:57;1.52;;;0.90;;
19173;SDS011;9719;49.322;8.536;2024-02-16T15:25:58;1.10;;;1.10;;
19173;SDS011;9719;49.322;8.536;2024-02-16T15:31:04;1.15;;;1.05;;
19173;SDS011;9719;49.322;8.536;2024-02-16T15:36:07;1.23;;;1.10;;
19173;SDS011;9719;49.322;8.536;2024-02-16T15:41:09;3.92;;;1.15;;
19173;SDS011;9719;49.322;8.536;2024-02-16T15:46:12;1.50;;;1.15;;
19173;SDS011;9719;49.322;8.536;2024-02-16T15:51:14;1.73;;;1.63;;
19173;SDS011;9719;49.322;8.536;2024-02-16T15:56:16;1.30;;;1.20;;
19173;SDS011;9719;49.322;8.536;2024-02-16T16:01:19;1.10;;;1.10;;
19173;SDS011;9719;49.322;8.536;2024-02-16T16:06:20;1.08;;;1.08;;
19173;SDS011;9719;49.322;8.536;2024-02-16T16:11:22;1.75;;;1.65;;
19173;SDS011;9719;49.322;8.536;2024-02-16T16:16:25;1.63;;;1.52;;
19173;SDS011;9719;49.322;8.536;2024-02-16T16:21:27;3.78;;;3.47;;
19173;SDS011;9719;49.322;8.536;2024-02-16T16:26:28;2.80;;;1.95;;
19173;SDS011;9719;49.322;8.536;2024-02-16T16:31:32;1.42;;;1.27;;
19173;SDS011;9719;49.322;8.536;2024-02-16T16:36:33;2.60;;;2.40;;
19173;SDS011;9719;49.322;8.536;2024-02-16T16:41:35;2.85;;;2.28;;
19173;SDS011;9719;49.322;8.536;2024-02-16T16:46:39;2.83;;;2.38;;
19173;SDS011;9719;49.322;8.536;2024-02-16T16:51:41;2.33;;;2.17;;
19173;SDS011;9719;49.322;8.536;2024-02-16T16:56:43;1.83;;;1.73;;
19173;SDS011;9719;49.322;8.536;2024-02-16T17:01:46;4.18;;;1.70;;
19173;SDS011;9719;49.322;8.536;2024-02-16T17:06:47;3.92;;;2.80;;
19173;SDS011;9719;49.322;8.536;2024-02-16T17:11:49;7.72;;;2.67;;
19173;SDS011;9719;49.322;8.536;2024-02-16T17:16:52;4.20;;;3.03;;
19173;SDS011;9719;49.322;8.536;2024-02-16T17:21:54;4.20;;;3.85;;
19173;SDS011;9719;49.322;8.536;2024-02-16T17:26:56;4.68;;;3.83;;
19173;SDS011;9719;49.322;8.536;2024-02-16T17:31:59;3.63;;;3.33;;
19173;SDS011;9719;49.322;8.536;2024-02-16T17:37:00;2.63;;;2.38;;
19173;SDS011;9719;49.322;8.536;2024-02-16T17:42:02;2.38;;;2.22;;
19173;SDS011;9719;49.322;8.536;2024-02-16T17:47:07;2.08;;;1.98;;
19173;SDS011;9719;49.322;8.536;2024-02-16T17:52:09;2.13;;;1.98;;
19173;SDS011;9719;49.322;8.536;2024-02-16T17:57:11;2.30;;;2.08;;
19173;SDS011;9719;49.322;8.536;2024-02-16T18:02:14;3.15;;;2.38;;
19173;SDS011;9719;49.322;8.536;2024-02-16T18:07:16;3.17;;;2.95;;
19173;SDS011;9719;49.322;8.536;2024-02-16T18:12:18;2.78;;;2.58;;
19173;SDS011;9719;49.322;8.536;2024-02-16T18:17:21;2.00;;;1.90;;
19173;SDS011;9719;49.322;8.536;2024-02-16T18:22:23;2.65;;;2.45;;
19173;SDS011;9719;49.322;8.536;2024-02-16T18:27:25;2.03;;;1.88;;
19173;SDS011;9719;49.322;8.536;2024-02-16T18:32:28;1.60;;;1.20;;
19173;SDS011;9719;49.322;8.536;2024-02-16T18:37:30;1.40;;;1.30;;
19173;SDS011;9719;49.322;8.536;2024-02-16T18:42:31;1.40;;;1.23;;
19173;SDS011;9719;49.322;8.536;2024-02-16T18:47:34;1.20;;;1.08;;
19173;SDS011;9719;49.322;8.536;2024-02-16T18:52:36;1.40;;;1.30;;
19173;SDS011;9719;49.322;8.536;2024-02-16T18:57:38;1.95;;;1.55;;
19173;SDS011;9719;49.322;8.536;2024-02-16T19:02:41;1.42;;;1.33;;
19173;SDS011;9719;49.322;8.536;2024-02-16T19:07:43;1.70;;;1.60;;
19173;SDS011;9719;49.322;8.536;2024-02-16T19:12:44;1.65;;;1.48;;
19173;SDS011;9719;49.322;8.536;2024-02-16T19:17:47;1.52;;;1.15;;
19173;SDS011;9719;49.322;8.536;2024-02-16T19:22:49;2.28;;;1.85;;
19173;SDS011;9719;49.322;8.536;2024-02-16T19:27:54;1.50;;;1.40;;
19173;SDS011;9719;49.322;8.536;2024-02-16T19:32:57;1.90;;;1.80;;
19173;SDS011;9719;49.322;8.536;2024-02-16T19:37:59;1.23;;;1.23;;
19173;SDS011;9719;49.322;8.536;2024-02-16T19:43:00;2.17;;;1.83;;
19173;SDS011;9719;49.322;8.536;2024-02-16T19:48:04;1.25;;;1.10;;
19173;SDS011;9719;49.322;8.536;2024-02-16T19:53:07;1.30;;;1.20;;
19173;SDS011;9719;49.322;8.536;2024-02-16T19:58:09;2.70;;;1.75;;
19173;SDS011;9719;49.322;8.536;2024-02-16T20:03:12;2.05;;;1.92;;
19173;SDS011;9719;49.322;8.536;2024-02-16T20:08:14;2.45;;;2.25;;
19173;SDS011;9719;49.322;8.536;2024-02-16T20:13:16;2.35;;;2.25;;
19173;SDS011;9719;49.322;8.536;2024-02-16T20:18:19;2.83;;;2.63;;
19173;SDS011;9719;49.322;8.536;2024-02-16T20:23:26;2.35;;;2.20;;
19173;SDS011;9719;49.322;8.536;2024-02-16T20:28:28;2.42;;;2.22;;
19173;SDS011;9719;49.322;8.536;2024-02-16T20:33:31;2.30;;;2.20;;
19173;SDS011;9719;49.322;8.536;2024-02-16T20:38:33;2.47;;;2.15;;
19173;SDS011;9719;49.322;8.536;2024-02-16T20:43:34;2.10;;;1.98;;
19173;SDS011;9719;49.322;8.536;2024-02-16T20:48:38;1.90;;;1.80;;
19173;SDS011;9719;49.322;8.536;2024-02-16T20:53:40;3.40;;;2.88;;
19173;SDS011;9719;49.322;8.536;2024-02-16T20:58:41;3.55;;;3.08;;
19173;SDS011;9719;49.322;8.536;2024-02-16T21:03:44;2.80;;;2.08;;
19173;SDS011;9719;49.322;8.536;2024-02-16T21:08:46;2.38;;;2.17;;
19173;SDS011;9719;49.322;8.536;2024-02-16T21:13:48;1.92;;;1.75;;
19173;SDS011;9719;49.322;8.536;2024-02-16T21:18:51;4.00;;;2.13;;
19173;SDS011;9719;49.322;8.536;2024-02-16T21:23:53;3.65;;;2.53;;
19173;SDS011;9719;49.322;8.536;2024-02-16T21:28:55;2.85;;;2.60;;
19173;SDS011;9719;49.322;8.536;2024-02-16T21:33:58;2.30;;;2.20;;
19173;SDS011;9719;49.322;8.536;2024-02-16T21:39:00;1.80;;;1.70;;
19173;SDS011;9719;49.322;8.536;2024-02-16T21:44:02;1.80;;;1.70;;
19173;SDS011;9719;49.322;8.536;2024-02-16T21:49:06;1.63;;;1.52;;
19173;SDS011;9719;49.322;8.536;2024-02-16T21:54:07;3.47;;;1.98;;
19173;SDS011;9719;49.322;8.536;2024-02-16T21:59:09;2.03;;;1.90;;
19173;SDS011;9719;49.322;8.536;2024-02-16T22:04:13;3.75;;;1.70;;
19173;SDS011;9719;49.322;8.536;2024-02-16T22:09:14;3.15;;;2.35;;
19173;SDS011;9719;49.322;8.536;2024-02-16T22:14:16;3.05;;;2.80;;
19173;SDS011;9719;49.322;8.536;2024-02-16T22:19:19;3.55;;;2.42;;
19173;SDS011;9719;49.322;8.536;2024-02-16T22:24:21;3.53;;;2.38;;
19173;SDS011;9719;49.322;8.536;2024-02-16T22:29:22;3.33;;;3.00;;
19173;SDS011;9719;49.322;8.536;2024-02-16T22:34:25;2.88;;;2.67;;
19173;SDS011;9719;49.322;8.536;2024-02-16T22:39:27;3.22;;;2.92;;
19173;SDS011;9719;49.322;8.536;2024-02-16T22:44:29;2.75;;;2.55;;
19173;SDS011;9719;49.322;8.536;2024-02-16T22:49:32;3.22;;;2.85;;
19173;SDS011;9719;49.322;8.536;2024-02-16T22:54:34;3.08;;;2.88;;
19173;SDS011;9719;49.322;8.536;2024-02-16T22:59:35;2.03;;;1.90;;
19173;SDS011;9719;49.322;8.536;2024-02-16T23:04:38;2.65;;;2.50;;
19173;SDS011;9719;49.322;8.536;2024-02-16T23:09:40;1.60;;;1.50;;
19173;SDS011;9719;49.322;8.536;2024-02-16T23:14:43;1.30;;;1.30;;
19173;SDS011;9719;49.322;8.536;2024-02-16T23:19:46;1.60;;;1.50;;
19173;SDS011;9719;49.322;8.536;2024-02-16T23:24:48;1.50;;;1.40;;
19173;SDS011;9719;49.322;8.536;2024-02-16T23:29:49;1.80;;;1.70;;
19173;SDS011;9719;49.322;8.536;2024-02-16T23:34:52;1.63;;;1.63;;
19173;SDS011;9719;49.322;8.536;2024-02-16T23:39:54;1.20;;;1.20;;
19173;SDS011;9719;49.322;8.536;2024-02-16T23:44:58;0.95;;;0.95;;
19173;SDS011;9719;49.322;8.536;2024-02-16T23:50:01;1.17;;;1.10;;
19173;SDS011;9719;49.322;8.536;2024-02-16T23:55:04;1.13;;;1.00;;
